Time;durP1;ratioP1;P1;durP2;ratioP2;P2;SDS_P1;SDS_P2;PMS_P1;PMS_P2;Temp;Humidity;BMP_temperature;BMP_pressure;BME280_temperature;BME280_humidity;BME280_pressure;Samples;Min_cycle;Max_cycle;Signal;HPM_P1;HPM_P2
2023/01/22 00:01:23;;;;;;;59.10;47.15;;;;;;;;;;4995841;28;20361;-73
2023/01/22 00:03:48;;;;;;;68.63;52.65;;;;;;;;;;5002281;28;20037;-73
2023/01/22 00:06:14;;;;;;;75.07;55.55;;;;;;;;;;5000790;28;20030;-73
2023/01/22 00:08:39;;;;;;;92.13;68.75;;;;;;;;;;5001880;28;20412;-73
2023/01/22 00:11:05;;;;;;;102.57;73.95;;;;;;;;;;5000911;28;20419;-74
2023/01/22 00:13:30;;;;;;;109.28;83.28;;;;;;;;;;5001754;28;20025;-73
2023/01/22 00:15:56;;;;;;;113.13;81.28;;;;;;;;;;4991647;28;20056;-73
2023/01/22 00:18:21;;;;;;;102.63;79.38;;;;;;;;;;4998375;28;20025;-74
2023/01/22 00:20:50;;;;;;;96.20;77.00;;;;;;;;;;5001525;28;20034;-74
2023/01/22 00:23:16;;;;;;;67.43;52.33;;;;;;;;;;4996063;28;20147;-74
2023/01/22 00:25:42;;;;;;;72.35;55.22;;;;;;;;;;4998678;28;20029;-74
2023/01/22 00:28:07;;;;;;;80.40;57.15;;;;;;;;;;5001391;28;20109;-74
2023/01/22 00:30:33;;;;;;;91.40;71.95;;;;;;;;;;4996615;28;20044;-74
2023/01/22 00:32:58;;;;;;;68.82;53.55;;;;;;;;;;4995797;28;20033;-74
2023/01/22 00:35:23;;;;;;;62.65;48.55;;;;;;;;;;5001563;28;20030;-75
2023/01/22 00:37:49;;;;;;;68.90;54.05;;;;;;;;;;5000322;28;20022;-74
2023/01/22 00:40:14;;;;;;;79.35;60.33;;;;;;;;;;4997714;28;20036;-74
2023/01/22 00:42:40;;;;;;;73.97;57.35;;;;;;;;;;4990315;28;20466;-75
2023/01/22 00:45:05;;;;;;;73.78;55.67;;;;;;;;;;4993846;28;20033;-74
2023/01/22 00:47:31;;;;;;;69.90;53.55;;;;;;;;;;4990263;28;20061;-74
2023/01/22 00:49:56;;;;;;;84.45;64.38;;;;;;;;;;5001492;28;20389;-74
2023/01/22 00:52:21;;;;;;;80.00;63.15;;;;;;;;;;5001319;28;20108;-74
2023/01/22 00:54:46;;;;;;;70.20;52.08;;;;;;;;;;5001627;28;20033;-74
2023/01/22 00:57:12;;;;;;;83.97;64.55;;;;;;;;;;5000175;28;20044;-74
2023/01/22 00:59:37;;;;;;;88.40;65.30;;;;;;;;;;5001733;28;20208;-74
2023/01/22 01:02:02;;;;;;;84.53;61.35;;;;;;;;;;4994500;28;20110;-74
2023/01/22 01:04:28;;;;;;;69.03;54.42;;;;;;;;;;4989024;28;20453;-74
2023/01/22 01:06:53;;;;;;;69.45;53.00;;;;;;;;;;5001533;28;20128;-73
2023/01/22 01:09:18;;;;;;;70.18;49.17;;;;;;;;;;5002967;28;20033;-74
2023/01/22 01:11:44;;;;;;;65.53;48.10;;;;;;;;;;4991413;28;20026;-74
2023/01/22 01:14:09;;;;;;;82.88;57.67;;;;;;;;;;5001141;28;20430;-74
2023/01/22 01:16:35;;;;;;;88.97;60.92;;;;;;;;;;4998038;28;20022;-73
2023/01/22 01:19:10;;;;;;;66.70;50.83;;;;;;;;;;4994055;28;20040;-74
2023/01/22 01:21:36;;;;;;;63.95;50.88;;;;;;;;;;5000800;28;20109;-74
2023/01/22 01:24:01;;;;;;;57.92;46.13;;;;;;;;;;5003904;28;20109;-75
2023/01/22 01:26:27;;;;;;;59.63;47.78;;;;;;;;;;4997969;28;20032;-74
2023/01/22 01:28:52;;;;;;;53.13;41.22;;;;;;;;;;4993828;28;20036;-75
2023/01/22 01:31:18;;;;;;;56.03;41.58;;;;;;;;;;5000536;28;20037;-75
2023/01/22 01:33:44;;;;;;;49.53;36.03;;;;;;;;;;4992382;28;20453;-74
2023/01/22 01:36:10;;;;;;;47.65;35.88;;;;;;;;;;5001934;28;20061;-73
2023/01/22 01:38:35;;;;;;;53.88;39.95;;;;;;;;;;5001476;28;20026;-74
2023/01/22 01:41:02;;;;;;;46.78;35.92;;;;;;;;;;5001959;28;20457;-75
2023/01/22 01:43:27;;;;;;;52.78;40.03;;;;;;;;;;5001829;28;20101;-74
2023/01/22 01:45:54;;;;;;;51.60;37.67;;;;;;;;;;4993561;28;20466;-74
2023/01/22 01:48:22;;;;;;;58.70;44.30;;;;;;;;;;4992905;28;20021;-74
2023/01/22 01:50:51;;;;;;;56.05;42.08;;;;;;;;;;5001578;28;20459;-74
2023/01/22 01:53:17;;;;;;;55.50;40.85;;;;;;;;;;5004813;28;20041;-75
2023/01/22 01:55:42;;;;;;;50.60;38.38;;;;;;;;;;5004676;28;20018;-74
2023/01/22 01:58:10;;;;;;;52.08;38.85;;;;;;;;;;4997160;28;20026;-74
2023/01/22 02:00:36;;;;;;;54.33;41.00;;;;;;;;;;5004428;28;20036;-75
2023/01/22 02:03:02;;;;;;;55.20;40.42;;;;;;;;;;5000166;28;20025;-74
2023/01/22 02:05:29;;;;;;;52.65;38.63;;;;;;;;;;4997932;28;20036;-74
2023/01/22 02:07:55;;;;;;;57.40;41.25;;;;;;;;;;5003940;28;20030;-75
2023/01/22 02:10:20;;;;;;;58.42;42.10;;;;;;;;;;4989337;28;20041;-74
2023/01/22 02:12:45;;;;;;;57.75;43.40;;;;;;;;;;5002494;28;20088;-74
2023/01/22 02:15:10;;;;;;;55.45;41.28;;;;;;;;;;5007050;28;20416;-74
2023/01/22 02:17:36;;;;;;;57.47;42.88;;;;;;;;;;5002277;28;20026;-74
2023/01/22 02:20:01;;;;;;;57.97;43.22;;;;;;;;;;4994811;28;20029;-74
2023/01/22 02:22:31;;;;;;;82.63;55.00;;;;;;;;;;5004582;28;20430;-73
2023/01/22 02:24:56;;;;;;;69.15;49.05;;;;;;;;;;5002367;28;20432;-74
2023/01/22 02:27:22;;;;;;;64.22;46.25;;;;;;;;;;5003660;28;20156;-75
2023/01/22 02:29:47;;;;;;;66.13;47.10;;;;;;;;;;4997044;28;20113;-74
2023/01/22 02:32:13;;;;;;;76.75;54.67;;;;;;;;;;5001787;28;20030;-75
2023/01/22 02:34:38;;;;;;;83.30;62.25;;;;;;;;;;4992568;28;20034;-75
2023/01/22 02:37:03;;;;;;;61.60;48.55;;;;;;;;;;5002831;28;20136;-76
2023/01/22 02:39:29;;;;;;;87.78;68.95;;;;;;;;;;5004412;28;20076;-75
2023/01/22 02:41:55;;;;;;;71.57;53.92;;;;;;;;;;5002998;28;20172;-75
2023/01/22 02:44:20;;;;;;;66.53;49.65;;;;;;;;;;5003827;28;20100;-75
2023/01/22 02:46:45;;;;;;;74.65;57.42;;;;;;;;;;5005133;28;20433;-75
2023/01/22 02:49:10;;;;;;;69.25;47.58;;;;;;;;;;5003728;28;20432;-75
2023/01/22 02:51:36;;;;;;;64.90;46.85;;;;;;;;;;4993390;28;20037;-75
2023/01/22 02:54:01;;;;;;;68.15;47.03;;;;;;;;;;4999835;28;20037;-75
2023/01/22 02:56:26;;;;;;;62.72;44.88;;;;;;;;;;5003763;28;20396;-75
2023/01/22 02:58:52;;;;;;;69.25;49.45;;;;;;;;;;5003523;28;20128;-75
2023/01/22 03:01:21;;;;;;;98.28;73.63;;;;;;;;;;5003313;28;20030;-75
2023/01/22 03:03:54;;;;;;;104.50;72.80;;;;;;;;;;5004915;28;20022;-75
2023/01/22 03:06:23;;;;;;;138.38;101.93;;;;;;;;;;5003352;28;20041;-75
2023/01/22 03:08:49;;;;;;;118.65;87.80;;;;;;;;;;5004220;28;20029;-75
2023/01/22 03:11:15;;;;;;;101.10;75.63;;;;;;;;;;5003072;28;20084;-75
2023/01/22 03:21:52;;;;;;;101.35;69.72;;;;;;;;;;5005004;28;20087;-74
2023/01/22 03:24:17;;;;;;;80.80;54.30;;;;;;;;;;5004589;28;20029;-75
2023/01/22 03:26:43;;;;;;;71.43;46.83;;;;;;;;;;5004457;28;20030;-74
2023/01/22 03:29:08;;;;;;;93.07;58.80;;;;;;;;;;5003463;28;20422;-74
2023/01/22 03:31:33;;;;;;;87.70;57.20;;;;;;;;;;5005226;28;20788;-75
2023/01/22 03:33:58;;;;;;;98.60;60.55;;;;;;;;;;5003850;28;20061;-74
2023/01/22 03:36:24;;;;;;;102.57;63.83;;;;;;;;;;5004089;28;20090;-76
2023/01/22 03:38:49;;;;;;;136.70;78.40;;;;;;;;;;5003334;28;21043;-74
2023/01/22 03:41:15;;;;;;;101.97;64.85;;;;;;;;;;5004028;28;20065;-75
2023/01/22 03:43:42;;;;;;;99.20;63.28;;;;;;;;;;5002792;28;20046;-74
2023/01/22 03:46:15;;;;;;;80.28;52.85;;;;;;;;;;5004994;28;20026;-74
2023/01/22 03:48:40;;;;;;;73.20;46.95;;;;;;;;;;5002462;28;20030;-74
2023/01/22 03:51:07;;;;;;;81.30;50.63;;;;;;;;;;5003077;28;20053;-74
2023/01/22 03:53:33;;;;;;;78.07;48.58;;;;;;;;;;5003883;28;20045;-74
2023/01/22 03:55:59;;;;;;;87.45;54.85;;;;;;;;;;5002986;28;20030;-74
2023/01/22 03:58:25;;;;;;;90.60;60.85;;;;;;;;;;5003938;28;20026;-74
2023/01/22 04:00:50;;;;;;;82.03;50.53;;;;;;;;;;5004116;28;20034;-74
2023/01/22 04:03:15;;;;;;;68.57;44.47;;;;;;;;;;5003121;28;20083;-74
2023/01/22 04:05:41;;;;;;;73.03;47.58;;;;;;;;;;5003463;28;20437;-74
2023/01/22 04:08:06;;;;;;;98.75;51.83;;;;;;;;;;5002959;28;20033;-74
2023/01/22 04:10:31;;;;;;;117.38;55.67;;;;;;;;;;5000507;28;20369;-75
2023/01/22 04:12:57;;;;;;;111.28;57.85;;;;;;;;;;4992253;28;20040;-74
2023/01/22 04:15:22;;;;;;;105.50;56.65;;;;;;;;;;5003460;28;20426;-74
2023/01/22 04:17:47;;;;;;;82.63;52.58;;;;;;;;;;5003084;28;20456;-75
2023/01/22 04:20:13;;;;;;;76.82;47.92;;;;;;;;;;5003688;28;20075;-75
2023/01/22 04:22:38;;;;;;;87.43;49.95;;;;;;;;;;5002235;28;20446;-75
2023/01/22 04:25:03;;;;;;;95.82;53.00;;;;;;;;;;5002399;28;20022;-75
2023/01/22 04:27:29;;;;;;;130.60;64.20;;;;;;;;;;5003486;28;20022;-75
2023/01/22 04:29:54;;;;;;;104.15;55.58;;;;;;;;;;5001824;28;20042;-74
2023/01/22 04:32:19;;;;;;;446.30;104.60;;;;;;;;;;5002801;28;20032;-74
2023/01/22 04:34:46;;;;;;;131.02;61.85;;;;;;;;;;5003342;28;20388;-75
2023/01/22 04:37:11;;;;;;;321.35;82.28;;;;;;;;;;5003566;28;20432;-75
2023/01/22 04:39:37;;;;;;;93.28;54.50;;;;;;;;;;5002451;28;20076;-75
2023/01/22 04:42:02;;;;;;;154.10;65.10;;;;;;;;;;4989636;28;20054;-74
2023/01/22 04:44:27;;;;;;;162.07;64.25;;;;;;;;;;5002012;28;20132;-74
2023/01/22 04:46:53;;;;;;;171.40;59.88;;;;;;;;;;5004123;28;20025;-74
2023/01/22 04:49:18;;;;;;;101.13;52.60;;;;;;;;;;5002770;28;20420;-74
2023/01/22 04:51:43;;;;;;;98.47;56.20;;;;;;;;;;5002252;28;20030;-74
2023/01/22 04:54:08;;;;;;;90.43;52.75;;;;;;;;;;5001753;28;20056;-74
2023/01/22 04:56:34;;;;;;;109.28;56.85;;;;;;;;;;5002074;28;20069;-75
2023/01/22 04:58:59;;;;;;;96.80;56.30;;;;;;;;;;5001996;28;20037;-75
2023/01/22 05:01:24;;;;;;;186.85;61.20;;;;;;;;;;5003384;28;20372;-74
2023/01/22 05:03:50;;;;;;;99.80;56.33;;;;;;;;;;5001985;28;20072;-74
2023/01/22 05:06:15;;;;;;;89.72;52.05;;;;;;;;;;5001332;28;20041;-75
2023/01/22 05:08:40;;;;;;;89.22;51.92;;;;;;;;;;5002550;28;20511;-75
2023/01/22 05:11:05;;;;;;;252.45;74.78;;;;;;;;;;5003362;28;20046;-75
2023/01/22 05:13:31;;;;;;;106.03;56.95;;;;;;;;;;5003330;28;20084;-75
2023/01/22 05:15:56;;;;;;;192.90;90.22;;;;;;;;;;5002424;28;20037;-75
2023/01/22 05:18:21;;;;;;;125.88;78.22;;;;;;;;;;5001859;28;20313;-76
2023/01/22 05:20:47;;;;;;;120.80;76.97;;;;;;;;;;5001785;28;20136;-76
2023/01/22 05:23:12;;;;;;;97.18;56.88;;;;;;;;;;5003268;28;20155;-75
2023/01/22 05:25:37;;;;;;;69.75;43.50;;;;;;;;;;5007024;28;20022;-75
2023/01/22 05:28:03;;;;;;;131.30;51.60;;;;;;;;;;5007741;28;20098;-75
2023/01/22 05:30:28;;;;;;;68.55;42.17;;;;;;;;;;5006075;28;20352;-75
2023/01/22 05:32:54;;;;;;;78.28;44.38;;;;;;;;;;5005304;28;20060;-75
2023/01/22 05:35:21;;;;;;;88.43;48.83;;;;;;;;;;5006677;28;20044;-76
2023/01/22 05:37:46;;;;;;;85.72;50.28;;;;;;;;;;5005744;28;20034;-75
2023/01/22 05:40:12;;;;;;;78.35;49.00;;;;;;;;;;5005817;28;20088;-76
2023/01/22 05:42:37;;;;;;;91.82;44.58;;;;;;;;;;5005434;28;20051;-75
2023/01/22 05:45:02;;;;;;;83.63;53.05;;;;;;;;;;5006685;28;20034;-76
2023/01/22 05:47:28;;;;;;;162.13;54.40;;;;;;;;;;5005055;28;20322;-75
2023/01/22 05:49:54;;;;;;;88.43;47.97;;;;;;;;;;5003163;28;20120;-75
2023/01/22 05:52:19;;;;;;;124.30;70.78;;;;;;;;;;5005258;28;20690;-76
2023/01/22 05:54:45;;;;;;;114.20;57.75;;;;;;;;;;5005728;28;20030;-76
2023/01/22 05:57:10;;;;;;;142.77;53.08;;;;;;;;;;5001183;28;20026;-75
2023/01/22 05:59:35;;;;;;;108.30;49.25;;;;;;;;;;4991441;28;20094;-75
2023/01/22 06:02:01;;;;;;;136.80;56.08;;;;;;;;;;4991281;28;20090;-74
2023/01/22 06:04:26;;;;;;;123.07;51.13;;;;;;;;;;4993610;28;20025;-74
2023/01/22 06:06:51;;;;;;;99.75;49.08;;;;;;;;;;4991737;28;20022;-76
2023/01/22 06:09:16;;;;;;;94.40;47.83;;;;;;;;;;4997235;28;20037;-75
2023/01/22 06:11:42;;;;;;;162.77;62.83;;;;;;;;;;4997139;28;20125;-76
2023/01/22 06:14:07;;;;;;;82.72;49.28;;;;;;;;;;4992612;28;20101;-75
2023/01/22 06:16:33;;;;;;;93.47;49.58;;;;;;;;;;4999087;28;20028;-78
2023/01/22 06:18:58;;;;;;;426.70;86.45;;;;;;;;;;5002509;28;20033;-76
2023/01/22 06:21:23;;;;;;;81.63;46.22;;;;;;;;;;4999849;28;20054;-75
2023/01/22 06:23:49;;;;;;;101.60;48.60;;;;;;;;;;4991597;28;20441;-74
2023/01/22 06:26:14;;;;;;;95.40;47.63;;;;;;;;;;4993305;28;20130;-75
2023/01/22 06:28:39;;;;;;;191.77;65.22;;;;;;;;;;4997067;28;20033;-74
2023/01/22 06:31:06;;;;;;;130.93;58.63;;;;;;;;;;4997838;28;20053;-75
2023/01/22 06:33:32;;;;;;;73.80;45.30;;;;;;;;;;4994041;28;20022;-76
2023/01/22 06:35:58;;;;;;;98.88;59.90;;;;;;;;;;4995525;28;20330;-77
2023/01/22 06:38:23;;;;;;;75.10;40.35;;;;;;;;;;4998571;28;20055;-77
2023/01/22 06:40:52;;;;;;;114.28;51.28;;;;;;;;;;4989988;28;20392;-75
2023/01/22 06:43:17;;;;;;;259.52;129.50;;;;;;;;;;4991928;28;20049;-76
2023/01/22 06:45:42;;;;;;;114.80;66.18;;;;;;;;;;4998501;28;20030;-76
2023/01/22 06:48:08;;;;;;;121.07;74.65;;;;;;;;;;5004663;28;20025;-75
2023/01/22 06:50:33;;;;;;;135.60;80.78;;;;;;;;;;5005490;28;20064;-74
2023/01/22 06:52:59;;;;;;;143.55;82.25;;;;;;;;;;5004784;28;20025;-75
2023/01/22 06:55:24;;;;;;;97.28;58.78;;;;;;;;;;5006159;28;20390;-73
2023/01/22 06:57:49;;;;;;;87.68;50.72;;;;;;;;;;4993432;28;20140;-74
2023/01/22 07:00:15;;;;;;;81.10;46.03;;;;;;;;;;4990730;28;20444;-74
2023/01/22 07:02:40;;;;;;;69.13;43.28;;;;;;;;;;4989799;28;20117;-72
2023/01/22 07:05:06;;;;;;;150.70;76.30;;;;;;;;;;4991980;28;20109;-72
2023/01/22 07:07:31;;;;;;;183.02;70.35;;;;;;;;;;4989833;28;20514;-73
2023/01/22 07:09:56;;;;;;;144.80;53.97;;;;;;;;;;4988890;28;20144;-73
2023/01/22 07:12:22;;;;;;;136.93;59.17;;;;;;;;;;4989770;28;20322;-74
2023/01/22 07:14:47;;;;;;;67.30;45.78;;;;;;;;;;4998293;28;20108;-74
2023/01/22 07:17:12;;;;;;;65.93;30.58;;;;;;;;;;5002615;28;20021;-75
2023/01/22 07:19:38;;;;;;;50.60;28.13;;;;;;;;;;5003327;28;20509;-74
2023/01/22 07:22:03;;;;;;;46.28;26.90;;;;;;;;;;5003551;28;20034;-74
2023/01/22 07:24:28;;;;;;;66.63;33.22;;;;;;;;;;5002697;28;20108;-74
2023/01/22 07:26:54;;;;;;;83.50;41.60;;;;;;;;;;5002973;28;20029;-74
2023/01/22 07:29:19;;;;;;;66.28;37.72;;;;;;;;;;4991430;28;20061;-75
2023/01/22 07:31:45;;;;;;;82.85;39.75;;;;;;;;;;4991659;28;20052;-72
2023/01/22 07:34:10;;;;;;;80.63;46.60;;;;;;;;;;5000533;28;20050;-73
2023/01/22 07:36:36;;;;;;;149.32;82.35;;;;;;;;;;5002857;28;20079;-72
2023/01/22 07:39:02;;;;;;;97.68;51.88;;;;;;;;;;5001950;28;20129;-73
2023/01/22 07:41:28;;;;;;;70.00;40.92;;;;;;;;;;5001909;28;20030;-72
2023/01/22 07:43:55;;;;;;;81.18;49.42;;;;;;;;;;5002722;28;20056;-74
2023/01/22 07:46:21;;;;;;;121.10;79.57;;;;;;;;;;5004283;28;20053;-72
2023/01/22 07:48:46;;;;;;;155.13;109.03;;;;;;;;;;4986947;28;20064;-71
2023/01/22 07:51:11;;;;;;;102.00;68.88;;;;;;;;;;4990732;28;20036;-72
2023/01/22 07:53:39;;;;;;;153.77;98.22;;;;;;;;;;4986968;28;20460;-71
2023/01/22 07:56:04;;;;;;;154.68;107.07;;;;;;;;;;4996092;28;20488;-72
2023/01/22 07:58:30;;;;;;;126.28;88.70;;;;;;;;;;5002412;28;20030;-72
2023/01/22 08:00:55;;;;;;;89.22;60.25;;;;;;;;;;4992880;28;20076;-72
2023/01/22 08:03:20;;;;;;;60.58;44.53;;;;;;;;;;5002274;28;20722;-72
2023/01/22 08:05:46;;;;;;;94.22;66.72;;;;;;;;;;5003704;28;20442;-72
2023/01/22 08:08:19;;;;;;;86.22;60.63;;;;;;;;;;4992004;28;20025;-73
2023/01/22 08:10:44;;;;;;;138.52;91.70;;;;;;;;;;4992077;28;20123;-73
2023/01/22 08:13:09;;;;;;;155.95;111.47;;;;;;;;;;4993281;28;20030;-72
2023/01/22 08:15:35;;;;;;;107.32;72.53;;;;;;;;;;4990335;28;20025;-71
2023/01/22 08:18:00;;;;;;;120.80;88.53;;;;;;;;;;4999474;28;20387;-73
2023/01/22 08:20:25;;;;;;;88.72;63.88;;;;;;;;;;5001104;28;20029;-70
2023/01/22 08:22:56;;;;;;;96.13;70.75;;;;;;;;;;5002169;28;20041;-73
2023/01/22 08:25:21;;;;;;;155.27;87.38;;;;;;;;;;5001912;28;20022;-73
2023/01/22 08:27:46;;;;;;;102.00;61.38;;;;;;;;;;5002315;28;20048;-71
2023/01/22 08:30:12;;;;;;;95.95;62.78;;;;;;;;;;5002689;28;20065;-72
2023/01/22 08:32:39;;;;;;;103.28;62.53;;;;;;;;;;5001523;28;20156;-71
2023/01/22 08:35:05;;;;;;;76.57;41.22;;;;;;;;;;5002570;28;20037;-71
2023/01/22 08:37:30;;;;;;;58.85;39.85;;;;;;;;;;5001693;28;20018;-72
2023/01/22 08:39:55;;;;;;;183.45;90.82;;;;;;;;;;5002669;28;20040;-72
2023/01/22 08:42:20;;;;;;;143.00;74.18;;;;;;;;;;5002351;28;20546;-72
2023/01/22 08:44:46;;;;;;;94.32;42.08;;;;;;;;;;5002355;28;20038;-74
2023/01/22 08:47:11;;;;;;;100.07;64.13;;;;;;;;;;5002282;28;20026;-73
2023/01/22 08:49:36;;;;;;;368.67;112.75;;;;;;;;;;5002061;28;20106;-73
2023/01/22 08:52:02;;;;;;;384.75;137.40;;;;;;;;;;5001190;28;20444;-74
2023/01/22 08:54:27;;;;;;;249.25;99.55;;;;;;;;;;5001827;28;20057;-72
2023/01/22 08:56:52;;;;;;;135.02;67.10;;;;;;;;;;5002793;28;20459;-73
2023/01/22 08:59:17;;;;;;;305.13;94.20;;;;;;;;;;5004193;28;20112;-72
2023/01/22 09:01:43;;;;;;;253.88;125.50;;;;;;;;;;5001085;28;20022;-72
2023/01/22 09:04:09;;;;;;;273.95;137.88;;;;;;;;;;5001635;28;20029;-72
2023/01/22 09:06:35;;;;;;;108.68;59.33;;;;;;;;;;5001372;28;20030;-72
2023/01/22 09:09:00;;;;;;;148.45;71.45;;;;;;;;;;5001619;28;20103;-72
2023/01/22 09:11:28;;;;;;;107.97;50.25;;;;;;;;;;5000938;28;20807;-74
2023/01/22 09:13:55;;;;;;;79.10;37.88;;;;;;;;;;5001456;28;20438;-72
2023/01/22 09:16:20;;;;;;;48.75;33.10;;;;;;;;;;5003379;28;20084;-73
2023/01/22 09:18:45;;;;;;;165.48;81.28;;;;;;;;;;5003152;28;20504;-77
2023/01/22 09:21:11;;;;;;;83.13;43.45;;;;;;;;;;5001085;28;20030;-74
2023/01/22 09:23:36;;;;;;;141.32;100.15;;;;;;;;;;5001987;28;20341;-72
2023/01/22 09:26:01;;;;;;;126.60;85.68;;;;;;;;;;5003587;28;20109;-73
2023/01/22 09:28:27;;;;;;;98.30;64.20;;;;;;;;;;5001460;28;20025;-73
2023/01/22 09:30:52;;;;;;;57.65;34.78;;;;;;;;;;5002334;28;20033;-72
2023/01/22 09:33:17;;;;;;;118.97;70.75;;;;;;;;;;5002356;28;20038;-74
2023/01/22 09:35:42;;;;;;;127.38;87.35;;;;;;;;;;5003500;28;20040;-73
2023/01/22 09:38:11;;;;;;;169.30;123.97;;;;;;;;;;5001839;28;20118;-72
2023/01/22 09:40:47;;;;;;;147.63;107.55;;;;;;;;;;5002055;28;20367;-73
2023/01/22 09:43:26;;;;;;;264.08;159.00;;;;;;;;;;5001978;28;20046;-73
2023/01/22 09:45:53;;;;;;;147.35;89.93;;;;;;;;;;5002593;28;20045;-72
2023/01/22 09:48:19;;;;;;;250.93;110.07;;;;;;;;;;5002309;28;20026;-72
2023/01/22 09:50:44;;;;;;;117.82;77.47;;;;;;;;;;5001880;28;20372;-73
2023/01/22 09:53:15;;;;;;;129.02;93.40;;;;;;;;;;5002436;28;20022;-73
2023/01/22 09:55:46;;;;;;;81.22;61.92;;;;;;;;;;5001687;28;20021;-73
2023/01/22 09:58:13;;;;;;;134.43;75.15;;;;;;;;;;5001390;28;20350;-72
2023/01/22 10:00:40;;;;;;;103.47;66.65;;;;;;;;;;5001813;28;20030;-73
2023/01/22 10:03:10;;;;;;;120.93;69.75;;;;;;;;;;5003292;28;20042;-74
2023/01/22 10:05:35;;;;;;;;;;;;;;;;;;5002060;28;20055;-72
2023/01/22 10:08:13;;;;;;;118.13;71.67;;;;;;;;;;5001223;28;20325;-72
2023/01/22 10:10:38;;;;;;;149.05;93.88;;;;;;;;;;5004925;28;20034;-73
2023/01/22 10:13:03;;;;;;;195.02;112.22;;;;;;;;;;5004861;28;20079;-73
2023/01/22 10:15:28;;;;;;;114.40;71.90;;;;;;;;;;5004978;28;20457;-72
2023/01/22 10:17:55;;;;;;;131.13;78.53;;;;;;;;;;5004165;28;20337;-73
2023/01/22 10:20:20;;;;;;;97.53;68.07;;;;;;;;;;5004936;28;20049;-72
2023/01/22 10:22:47;;;;;;;90.60;67.13;;;;;;;;;;5005091;28;20034;-73
2023/01/22 10:25:13;;;;;;;167.88;127.53;;;;;;;;;;5006433;28;20116;-74
2023/01/22 10:27:39;;;;;;;183.85;119.70;;;;;;;;;;5004009;28;20115;-74
2023/01/22 10:30:16;;;;;;;146.50;86.95;;;;;;;;;;5005348;28;20476;-73
2023/01/22 10:32:41;;;;;;;138.55;86.82;;;;;;;;;;5003703;28;20464;-73
2023/01/22 10:35:09;;;;;;;167.38;98.22;;;;;;;;;;5004071;28;20042;-74
2023/01/22 10:37:45;;;;;;;111.93;70.88;;;;;;;;;;5004296;28;20310;-73
2023/01/22 10:40:25;;;;;;;70.25;47.90;;;;;;;;;;5003462;28;20037;-73
2023/01/22 10:43:00;;;;;;;45.55;33.95;;;;;;;;;;5003776;28;20511;-72
2023/01/22 10:45:25;;;;;;;255.88;136.88;;;;;;;;;;5004727;28;20025;-74
2023/01/22 10:47:50;;;;;;;64.18;42.70;;;;;;;;;;5003563;28;20144;-74
2023/01/22 10:50:16;;;;;;;43.30;32.80;;;;;;;;;;5003553;28;20050;-74
2023/01/22 10:52:49;;;;;;;235.63;131.57;;;;;;;;;;5005068;28;20061;-72
2023/01/22 10:55:22;;;;;;;111.60;67.40;;;;;;;;;;5003540;28;20030;-72
2023/01/22 10:57:55;;;;;;;44.58;34.13;;;;;;;;;;5002692;28;20041;-71
2023/01/22 11:00:24;;;;;;;59.65;40.42;;;;;;;;;;5004638;28;20025;-75
2023/01/22 11:02:49;;;;;;;58.70;43.30;;;;;;;;;;5004264;28;20088;-72
2023/01/22 11:05:16;;;;;;;47.58;36.03;;;;;;;;;;5003950;28;20018;-73
2023/01/22 11:07:43;;;;;;;43.65;34.47;;;;;;;;;;5003217;28;20049;-72
2023/01/22 11:10:11;;;;;;;45.85;35.55;;;;;;;;;;5004104;28;20033;-71
2023/01/22 11:12:42;;;;;;;29.52;23.05;;;;;;;;;;5002977;28;20037;-72
2023/01/22 11:15:16;;;;;;;29.23;23.30;;;;;;;;;;5002449;28;20132;-72
2023/01/22 11:17:45;;;;;;;30.70;26.15;;;;;;;;;;5003596;28;20414;-74
2023/01/22 11:20:31;;;;;;;42.92;30.02;;;;;;;;;;5003256;28;20041;-72
2023/01/22 11:22:59;;;;;;;32.13;25.75;;;;;;;;;;4997117;28;20116;-73
2023/01/22 11:25:26;;;;;;;37.72;33.10;;;;;;;;;;5001665;28;20025;-72
2023/01/22 11:28:01;;;;;;;60.97;50.60;;;;;;;;;;5004550;28;20425;-71
2023/01/22 11:30:32;;;;;;;84.70;63.40;;;;;;;;;;5003213;28;20088;-72
2023/01/22 11:33:16;;;;;;;452.67;223.63;;;;;;;;;;5004337;28;20033;-72
2023/01/22 11:35:44;;;;;;;231.98;117.03;;;;;;;;;;5002626;28;20026;-72
2023/01/22 11:38:12;;;;;;;102.30;72.95;;;;;;;;;;5002497;28;21161;-72
2023/01/22 11:40:41;;;;;;;71.50;52.65;;;;;;;;;;5004222;28;20129;-71
2023/01/22 11:43:17;;;;;;;89.75;73.93;;;;;;;;;;5002119;28;20042;-71
2023/01/22 11:46:05;;;;;;;150.05;93.47;;;;;;;;;;5003897;28;20037;-71
2023/01/22 11:48:38;;;;;;;148.60;86.55;;;;;;;;;;5001682;28;20036;-73
2023/01/22 11:51:22;;;;;;;118.40;78.07;;;;;;;;;;5001902;28;20353;-72
2023/01/22 11:54:05;;;;;;;194.68;106.65;;;;;;;;;;5003001;28;20453;-73
2023/01/22 11:56:36;;;;;;;72.25;48.58;;;;;;;;;;5002291;28;20040;-72
2023/01/22 11:59:18;;;;;;;69.97;48.38;;;;;;;;;;5002314;28;20038;-73
2023/01/22 12:02:02;;;;;;;193.98;139.65;;;;;;;;;;5004047;28;20038;-72
2023/01/22 12:04:33;;;;;;;110.68;82.60;;;;;;;;;;5003180;28;20446;-73
2023/01/22 12:07:01;;;;;;;254.88;132.43;;;;;;;;;;5002446;28;20441;-72
2023/01/22 12:09:32;;;;;;;192.18;113.80;;;;;;;;;;5002711;28;20049;-72
2023/01/22 12:12:26;;;;;;;79.03;54.80;;;;;;;;;;5004290;28;20087;-72
2023/01/22 12:14:51;;;;;;;188.30;121.97;;;;;;;;;;5002900;28;20364;-72
2023/01/22 12:17:31;;;;;;;134.65;100.55;;;;;;;;;;5002463;28;20449;-72
2023/01/22 12:20:12;;;;;;;130.57;98.65;;;;;;;;;;5002914;28;20056;-73
2023/01/22 12:22:47;;;;;;;71.90;56.33;;;;;;;;;;5002460;28;20049;-72
2023/01/22 12:25:24;;;;;;;46.60;38.90;;;;;;;;;;5003529;28;20092;-73
2023/01/22 12:27:52;;;;;;;44.53;39.45;;;;;;;;;;5003751;28;20150;-72
2023/01/22 12:30:17;;;;;;;53.33;47.25;;;;;;;;;;5003056;28;20026;-72
2023/01/22 12:32:45;;;;;;;49.28;41.60;;;;;;;;;;5001359;28;20403;-74
2023/01/22 12:35:13;;;;;;;51.25;41.53;;;;;;;;;;5001986;28;20042;-73
2023/01/22 12:37:41;;;;;;;55.03;44.22;;;;;;;;;;5004021;28;20072;-73
2023/01/22 12:40:06;;;;;;;75.20;60.25;;;;;;;;;;5002444;28;20061;-72
2023/01/22 12:42:42;;;;;;;49.38;44.17;;;;;;;;;;5002358;28;20045;-71
2023/01/22 12:45:23;;;;;;;44.95;40.15;;;;;;;;;;5001164;28;20036;-72
2023/01/22 12:47:48;;;;;;;57.85;51.53;;;;;;;;;;5003894;28;20010;-72
2023/01/22 12:50:23;;;;;;;60.13;51.50;;;;;;;;;;5000926;28;20032;-76
2023/01/22 12:53:19;;;;;;;60.22;53.38;;;;;;;;;;5001536;28;20030;-72
2023/01/22 12:55:44;;;;;;;59.80;46.28;;;;;;;;;;5002377;28;20088;-71
2023/01/22 12:58:23;;;;;;;61.15;47.17;;;;;;;;;;5001849;28;20034;-72
2023/01/22 13:00:58;;;;;;;43.65;37.65;;;;;;;;;;5003341;28;20045;-72
2023/01/22 13:03:27;;;;;;;47.67;41.55;;;;;;;;;;5002092;28;20464;-72
2023/01/22 13:05:52;;;;;;;50.07;44.37;;;;;;;;;;5003688;28;20045;-72
2023/01/22 13:08:18;;;;;;;37.08;31.30;;;;;;;;;;5002129;28;20072;-72
2023/01/22 13:10:56;;;;;;;53.08;46.45;;;;;;;;;;5001688;28;20053;-72
2023/01/22 13:13:25;;;;;;;77.00;69.20;;;;;;;;;;5002081;28;20021;-76
2023/01/22 13:15:52;;;;;;;75.57;58.90;;;;;;;;;;5001898;28;20120;-74
2023/01/22 13:18:19;;;;;;;51.10;42.67;;;;;;;;;;5002002;28;20326;-72
2023/01/22 13:20:53;;;;;;;106.22;76.93;;;;;;;;;;5002103;28;20041;-72
2023/01/22 13:23:18;;;;;;;220.02;161.77;;;;;;;;;;5002648;28;20454;-72
2023/01/22 13:25:44;;;;;;;98.03;78.88;;;;;;;;;;5002881;28;20105;-74
2023/01/22 13:28:14;;;;;;;79.45;64.45;;;;;;;;;;5001344;28;20026;-75
2023/01/22 13:30:40;;;;;;;78.60;60.55;;;;;;;;;;5001876;28;20045;-74
2023/01/22 13:33:12;;;;;;;98.72;73.47;;;;;;;;;;5002658;28;20026;-72
2023/01/22 13:35:44;;;;;;;82.05;62.95;;;;;;;;;;5001612;28;20472;-72
2023/01/22 13:38:18;;;;;;;74.63;62.92;;;;;;;;;;5001598;28;20045;-73
2023/01/22 13:40:46;;;;;;;61.75;50.83;;;;;;;;;;5001803;28;20048;-72
2023/01/22 13:43:14;;;;;;;48.45;39.30;;;;;;;;;;5001034;28;20169;-73
2023/01/22 13:45:40;;;;;;;95.70;74.55;;;;;;;;;;5004311;28;20018;-72
2023/01/22 13:48:05;;;;;;;80.07;64.03;;;;;;;;;;5004997;28;20326;-72
2023/01/22 13:50:31;;;;;;;71.78;58.42;;;;;;;;;;5005403;28;20117;-71
2023/01/22 13:52:57;;;;;;;103.38;82.80;;;;;;;;;;5005598;28;20033;-72
2023/01/22 13:55:23;;;;;;;108.68;90.30;;;;;;;;;;5005104;28;20057;-73
2023/01/22 13:57:50;;;;;;;87.40;74.03;;;;;;;;;;5005999;28;20106;-74
2023/01/22 14:00:22;;;;;;;76.32;64.20;;;;;;;;;;5006675;28;20048;-73
2023/01/22 14:02:48;;;;;;;59.20;51.63;;;;;;;;;;5007299;28;20068;-73
2023/01/22 14:05:19;;;;;;;58.28;47.92;;;;;;;;;;5005191;28;20038;-72
2023/01/22 14:07:45;;;;;;;64.97;57.28;;;;;;;;;;5004175;28;20048;-74
2023/01/22 14:10:21;;;;;;;50.97;42.65;;;;;;;;;;5005620;28;20611;-72
2023/01/22 14:12:59;;;;;;;41.60;34.42;;;;;;;;;;5005366;28;20152;-73
2023/01/22 14:15:24;;;;;;;61.78;48.40;;;;;;;;;;5005684;28;20026;-73
2023/01/22 14:17:50;;;;;;;59.50;45.38;;;;;;;;;;5007168;28;20036;-73
2023/01/22 14:20:15;;;;;;;55.90;43.08;;;;;;;;;;5006653;28;20076;-74